Time;durP1;ratioP1;P1;durP2;ratioP2;P2;SDS_P1;SDS_P2;PMS_P1;PMS_P2;Temp;Humidity;BMP_temperature;BMP_pressure;BME280_temperature;BME280_humidity;BME280_pressure;Samples;Min_cycle;Max_cycle;Signal;HPM_P1;HPM_P2
2023/12/11 00:01:07;;;;;;;2.17;1.02;;;;;;;;;;5007921;28;20025;-86
2023/12/11 00:03:33;;;;;;;4.30;1.13;;;;;;;;;;5026342;28;20036;-86
2023/12/11 00:05:59;;;;;;;1.50;0.85;;;;;;;;;;5026067;28;20018;-89
2023/12/11 00:08:25;;;;;;;3.42;1.05;;;;;;;;;;5008545;28;20022;-87
2023/12/11 00:10:51;;;;;;;2.22;0.85;;;;;;;;;;5024479;28;20014;-85
2023/12/11 00:13:17;;;;;;;2.83;1.10;;;;;;;;;;5007448;28;20034;-85
2023/12/11 00:15:43;;;;;;;4.50;2.15;;;;;;;;;;5009895;28;20022;-86
2023/12/11 00:18:09;;;;;;;2.83;1.05;;;;;;;;;;5006040;28;20030;-87
2023/12/11 00:20:36;;;;;;;2.72;1.00;;;;;;;;;;5009613;28;20045;-86
2023/12/11 00:23:02;;;;;;;2.13;0.80;;;;;;;;;;5025139;28;20026;-86
2023/12/11 00:25:28;;;;;;;4.00;1.45;;;;;;;;;;5010501;28;20062;-87
2023/12/11 00:27:54;;;;;;;4.97;1.10;;;;;;;;;;5027098;28;20048;-88
2023/12/11 00:30:20;;;;;;;3.55;1.23;;;;;;;;;;5008681;28;20018;-86
2023/12/11 00:32:46;;;;;;;2.70;1.08;;;10.10;99.90;;;;;;5009706;28;20049;-87
2023/12/11 00:35:12;;;;;;;1.88;0.90;;;;;;;;;;5009539;28;20093;-87
2023/12/11 00:37:38;;;;;;;2.33;1.02;;;;;;;;;;5011463;28;20018;-86
2023/12/11 00:40:04;;;;;;;2.33;1.00;;;;;;;;;;5007036;28;20025;-88
2023/12/11 00:42:30;;;;;;;2.60;0.82;;;;;;;;;;5007241;28;20091;-86
2023/12/11 00:44:58;;;;;;;2.35;1.23;;;;;;;;;;5023562;28;20050;-88
2023/12/11 00:47:29;;;;;;;2.58;1.10;;;10.00;99.90;;;;;;5009369;28;20029;-85
2023/12/11 00:49:55;;;;;;;;;;;10.00;99.90;;;;;;5007006;28;20014;-85
2023/12/11 00:52:21;;;;;;;2.03;1.00;;;;;;;;;;5024804;28;19960;-85
2023/12/11 00:54:47;;;;;;;3.72;1.25;;;;;;;;;;5012040;28;20030;-87
2023/12/11 00:57:13;;;;;;;3.65;1.10;;;;;;;;;;5023766;28;20022;-87
2023/12/11 00:59:39;;;;;;;2.35;0.95;;;;;;;;;;5011796;28;20036;-87
2023/12/11 01:02:05;;;;;;;3.42;1.00;;;;;;;;;;5012763;28;20034;-88
2023/12/11 01:04:31;;;;;;;3.55;1.00;;;;;;;;;;5013663;28;20041;-88
2023/12/11 01:06:57;;;;;;;2.45;0.90;;;;;;;;;;5030409;28;20022;-88
2023/12/11 01:09:23;;;;;;;2.20;1.20;;;;;;;;;;5011748;28;20032;-87
2023/12/11 01:11:49;;;;;;;4.90;1.25;;;;;;;;;;5029815;28;20049;-85
2023/12/11 01:14:15;;;;;;;0.95;0.80;;;;;;;;;;5012983;28;20021;-88
2023/12/11 01:16:41;;;;;;;5.20;1.58;;;;;;;;;;5013321;28;20034;-86
2023/12/11 01:19:07;;;;;;;3.63;1.10;;;;;;;;;;5010092;28;20121;-86
2023/12/11 01:21:33;;;;;;;4.22;1.08;;;9.90;99.90;;;;;;5029910;28;20488;-87
2023/12/11 01:23:59;;;;;;;1.65;0.90;;;;;;;;;;5006877;28;20038;-87
2023/12/11 01:26:25;;;;;;;3.13;1.30;;;;;;;;;;5025167;28;20037;-86
2023/12/11 01:28:51;;;;;;;3.08;1.00;;;;;;;;;;5011997;28;20037;-88
2023/12/11 01:31:20;;;;;;;3.33;1.02;;;;;;;;;;5025400;28;20121;-84
2023/12/11 01:33:46;;;;;;;3.17;1.00;;;9.90;99.90;;;;;;5025282;28;20026;-88
2023/12/11 01:36:12;;;;;;;2.13;0.93;;;;;;;;;;5008609;28;20109;-85
2023/12/11 01:38:38;;;;;;;5.55;1.70;;;;;;;;;;5019793;28;20084;-87
2023/12/11 01:41:04;;;;;;;7.22;1.48;;;;;;;;;;5009505;28;20018;-85
2023/12/11 01:43:30;;;;;;;4.75;1.10;;;;;;;;;;5010245;28;20150;-85
2023/12/11 01:46:10;;;;;;;5.78;1.30;;;9.90;99.90;;;;;;5008904;28;20241;-85
2023/12/11 01:48:37;;;;;;;5.50;1.10;;;;;;;;;;5026335;28;20048;-86
2023/12/11 01:51:04;;;;;;;3.60;0.90;;;9.90;99.90;;;;;;5027928;28;20146;-86
2023/12/11 01:53:30;;;;;;;4.32;1.40;;;;;;;;;;5011521;28;20053;-85
2023/12/11 01:55:56;;;;;;;5.85;1.40;;;;;;;;;;5026407;28;20105;-85
2023/12/11 01:58:22;;;;;;;5.78;1.10;;;9.90;99.90;;;;;;5012539;28;20049;-86
2023/12/11 02:00:48;;;;;;;6.10;1.45;;;;;;;;;;5029580;28;20034;-86
2023/12/11 02:03:15;;;;;;;2.90;1.20;;;9.80;99.90;;;;;;5014645;28;20034;-86
2023/12/11 02:05:43;;;;;;;6.20;1.73;;;9.80;99.90;;;;;;5022207;28;20018;-85
2023/12/11 02:08:09;;;;;;;5.38;1.35;;;10.10;99.90;;;;;;5027344;28;20030;-84
2023/12/11 02:10:36;;;;;;;4.93;1.55;;;9.80;99.90;;;;;;5025880;28;20030;-85
2023/12/11 02:13:03;;;;;;;6.57;1.30;;;9.70;99.90;;;;;;5010766;28;20014;-86
2023/12/11 02:15:38;;;;;;;4.20;1.33;;;9.70;99.90;;;;;;5025586;28;20030;-85
2023/12/11 02:18:03;;;;;;;10.13;1.35;;;9.90;99.90;;;;;;5028891;28;20010;-86
2023/12/11 02:20:29;;;;;;;5.32;1.20;;;9.70;99.90;;;;;;5011112;28;20013;-86
2023/12/11 02:22:57;;;;;;;5.53;1.20;;;9.70;99.90;;;;;;5010937;28;20033;-86
2023/12/11 02:25:25;;;;;;;5.68;1.52;;;9.80;99.90;;;;;;5024356;28;20049;-85
2023/12/11 02:27:50;;;;;;;4.25;1.10;;;9.90;99.90;;;;;;5013651;28;20452;-87
2023/12/11 02:30:16;;;;;;;6.63;1.20;;;10.00;99.90;;;;;;5010359;28;20146;-87
2023/12/11 02:32:42;;;;;;;5.45;1.13;;;9.90;99.90;;;;;;5025008;28;20018;-85
2023/12/11 02:35:08;;;;;;;3.83;1.05;;;9.90;99.90;;;;;;5007827;28;20034;-84
2023/12/11 02:37:33;;;;;;;7.38;1.33;;;9.90;99.90;;;;;;5024454;28;20077;-83
2023/12/11 02:39:59;;;;;;;6.75;2.08;;;9.80;99.90;;;;;;5011131;28;20041;-83
2023/12/11 02:42:25;;;;;;;4.63;1.33;;;9.90;99.90;;;;;;5020412;28;20869;-85
2023/12/11 02:44:50;;;;;;;6.00;1.50;;;10.10;99.90;;;;;;5022276;28;20041;-87
2023/12/11 02:47:16;;;;;;;3.88;1.20;;;9.80;99.90;;;;;;5010189;28;20030;-85
2023/12/11 02:49:42;;;;;;;5.07;1.40;;;9.80;99.90;;;;;;5009282;28;20048;-84
2023/12/11 02:52:07;;;;;;;4.93;1.55;;;9.80;99.90;;;;;;5010100;28;20118;-85
2023/12/11 02:54:33;;;;;;;6.18;1.77;;;;;;;;;;5026470;28;20018;-87
2023/12/11 02:56:59;;;;;;;8.30;2.10;;;9.70;99.90;;;;;;5028899;28;20053;-87
2023/12/11 02:59:25;;;;;;;5.45;2.08;;;9.70;99.90;;;;;;5012228;28;20045;-86
2023/12/11 03:01:50;;;;;;;3.38;1.80;;;9.70;99.90;;;;;;5010205;28;20018;-88
2023/12/11 03:04:16;;;;;;;3.75;2.10;;;9.60;99.90;;;;;;5008279;28;20036;-88
2023/12/11 03:06:41;;;;;;;6.78;2.05;;;9.60;99.90;;;;;;5010113;28;20076;-86
2023/12/11 03:09:07;;;;;;;5.78;2.20;;;9.60;99.90;;;;;;5028796;28;20061;-86
2023/12/11 03:11:33;;;;;;;4.43;2.20;;;9.70;99.90;;;;;;5010615;28;20057;-82
2023/12/11 03:13:59;;;;;;;3.45;2.03;;;9.50;99.90;;;;;;5009923;28;20018;-87
2023/12/11 03:16:27;;;;;;;4.38;2.10;;;9.50;99.90;;;;;;5012652;28;20037;-85
2023/12/11 03:18:55;;;;;;;7.10;2.15;;;9.50;99.90;;;;;;5008050;28;20062;-87
2023/12/11 03:21:21;;;;;;;4.70;2.28;;;9.50;99.90;;;;;;5028365;28;20026;-87
2023/12/11 03:23:47;;;;;;;5.68;2.40;;;;;;;;;;5010271;28;20040;-86
2023/12/11 03:26:13;;;;;;;5.32;2.50;;;9.50;99.90;;;;;;5026139;28;20037;-85
2023/12/11 03:28:38;;;;;;;4.20;2.35;;;9.60;99.90;;;;;;5026561;28;20076;-87
2023/12/11 03:31:04;;;;;;;4.22;2.20;;;9.60;99.90;;;;;;5007703;28;20011;-86
2023/12/11 03:33:30;;;;;;;3.53;2.17;;;9.60;99.90;;;;;;5005390;28;20032;-87
2023/12/11 03:35:55;;;;;;;4.68;2.00;;;9.60;99.90;;;;;;5011976;28;20052;-87
2023/12/11 03:38:21;;;;;;;3.67;2.00;;;9.70;99.90;;;;;;5028367;28;20030;-85
2023/12/11 03:40:50;;;;;;;2.95;1.83;;;9.60;99.90;;;;;;5011045;28;20086;-85
2023/12/11 03:43:16;;;;;;;7.57;1.70;;;10.20;99.90;;;;;;5013117;28;20021;-86
2023/12/11 03:45:41;;;;;;;4.03;1.60;;;9.70;99.90;;;;;;4987715;28;20024;-84
2023/12/11 03:48:07;;;;;;;3.55;1.20;;;9.90;99.90;;;;;;5025681;28;20021;-85
2023/12/11 03:50:33;;;;;;;3.30;1.67;;;10.20;99.90;;;;;;5009390;28;20041;-87
2023/12/11 03:52:59;;;;;;;2.42;1.30;;;10.10;99.90;;;;;;5007742;28;20029;-85
2023/12/11 03:55:25;;;;;;;3.97;1.30;;;10.10;99.90;;;;;;5027018;28;20041;-86
2023/12/11 03:57:50;;;;;;;2.55;1.33;;;10.20;99.90;;;;;;5025621;28;20037;-85
2023/12/11 04:00:16;;;;;;;1.83;1.00;;;10.30;99.90;;;;;;5008517;28;20038;-84
2023/12/11 04:02:42;;;;;;;2.95;1.02;;;10.40;99.90;;;;;;5010005;28;20042;-86
2023/12/11 04:05:08;;;;;;;4.20;1.02;;;10.80;99.90;;;;;;5009202;28;20089;-84
2023/12/11 04:07:34;;;;;;;4.63;1.00;;;10.60;99.90;;;;;;5012846;28;20104;-87
2023/12/11 04:09:59;;;;;;;3.15;1.10;;;10.60;99.90;;;;;;5016149;28;20014;-86
2023/12/11 04:12:25;;;;;;;3.85;1.25;;;10.70;99.90;;;;;;5007145;28;20014;-87
2023/12/11 04:14:51;;;;;;;5.57;1.30;;;10.70;99.90;;;;;;5025755;28;20022;-86
2023/12/11 04:17:16;;;;;;;3.65;1.00;;;10.70;99.90;;;;;;5029053;28;20033;-86
2023/12/11 04:19:42;;;;;;;3.30;0.80;;;10.80;99.90;;;;;;5010079;28;20034;-86
2023/12/11 04:22:07;;;;;;;3.00;0.82;;;10.80;99.90;;;;;;5027150;28;20026;-87
2023/12/11 04:24:33;;;;;;;2.50;0.82;;;10.90;99.90;;;;;;5010744;28;20014;-85
2023/12/11 04:26:59;;;;;;;3.58;1.08;;;10.80;99.90;;;;;;5027307;28;20030;-82
2023/12/11 04:29:24;;;;;;;5.30;1.38;;;10.80;99.90;;;;;;5028413;28;20026;-86
2023/12/11 04:31:50;;;;;;;6.32;1.40;;;10.80;99.90;;;;;;5016719;28;20830;-85
2023/12/11 04:34:16;;;;;;;10.05;1.60;;;10.80;99.90;;;;;;5011695;28;20021;-84
2023/12/11 04:36:43;;;;;;;6.30;1.20;;;10.80;99.90;;;;;;5014003;28;20098;-85
2023/12/11 04:39:09;;;;;;;3.92;1.17;;;10.90;99.90;;;;;;5026815;28;20052;-88
2023/12/11 04:41:34;;;;;;;4.07;1.00;;;10.90;99.90;;;;;;5026640;28;20030;-84
2023/12/11 04:44:00;;;;;;;4.00;1.08;;;10.90;99.90;;;;;;5010778;28;20022;-84
2023/12/11 04:46:26;;;;;;;7.20;1.45;;;11.00;99.90;;;;;;5013258;28;20105;-88
2023/12/11 04:48:51;;;;;;;5.45;1.30;;;10.90;99.90;;;;;;5012870;28;20110;-85
2023/12/11 04:51:17;;;;;;;3.47;1.10;;;10.90;99.90;;;;;;5028000;28;20013;-85
2023/12/11 04:53:43;;;;;;;3.47;1.13;;;10.80;99.90;;;;;;5027652;28;20049;-84
2023/12/11 04:56:09;;;;;;;6.78;1.25;;;10.80;99.90;;;;;;5024432;28;20034;-86
2023/12/11 04:58:38;;;;;;;4.50;1.30;;;10.90;99.90;;;;;;5027963;28;20033;-85
2023/12/11 05:01:04;;;;;;;7.03;1.20;;;10.90;99.90;;;;;;5009009;28;20213;-85
2023/12/11 05:03:29;;;;;;;6.32;1.33;;;10.80;99.90;;;;;;5007385;28;20010;-85
2023/12/11 05:05:56;;;;;;;5.88;1.33;;;10.80;99.90;;;;;;5022724;28;20125;-85
2023/12/11 05:08:21;;;;;;;5.57;1.48;;;10.80;99.90;;;;;;5025958;28;20066;-86
2023/12/11 05:10:47;;;;;;;6.85;1.17;;;9.70;99.90;;;;;;5025095;28;20006;-84
2023/12/11 05:13:13;;;;;;;5.18;1.33;;;10.70;99.90;;;;;;5025573;28;20030;-84
2023/12/11 05:15:38;;;;;;;5.05;1.90;;;10.90;99.90;;;;;;5023182;28;20041;-86
2023/12/11 05:18:04;;;;;;;5.72;1.70;;;10.80;99.90;;;;;;5011144;28;20078;-83
2023/12/11 05:20:30;;;;;;;5.70;1.30;;;10.80;99.90;;;;;;5028993;28;20104;-85
2023/12/11 05:22:55;;;;;;;4.10;1.42;;;10.90;99.90;;;;;;5012004;28;20036;-86
2023/12/11 05:25:21;;;;;;;4.40;1.10;;;10.90;99.90;;;;;;5025632;28;20025;-87
2023/12/11 05:27:47;;;;;;;5.72;1.40;;;11.00;99.90;;;;;;5029359;28;20045;-87
2023/12/11 05:30:12;;;;;;;6.82;1.30;;;10.90;99.90;;;;;;5024512;28;20049;-85
2023/12/11 05:32:38;;;;;;;5.88;1.67;;;11.00;99.90;;;;;;5024698;28;20101;-87
2023/12/11 05:35:06;;;;;;;4.45;1.40;;;10.80;99.90;;;;;;5029679;28;20044;-85
2023/12/11 05:37:31;;;;;;;7.57;1.60;;;11.00;99.90;;;;;;5022645;28;20026;-84
2023/12/11 05:39:57;;;;;;;6.40;1.73;;;11.00;99.90;;;;;;5023592;28;20030;-85
2023/12/11 05:42:23;;;;;;;8.07;1.60;;;10.90;99.90;;;;;;5011215;28;20026;-85
2023/12/11 05:44:48;;;;;;;7.50;2.17;;;11.00;99.90;;;;;;5012028;28;20024;-85
2023/12/11 05:47:14;;;;;;;5.55;1.63;;;10.90;99.90;;;;;;5010553;28;20283;-83
2023/12/11 05:49:40;;;;;;;6.25;1.92;;;;;;;;;;5011191;28;20022;-85
2023/12/11 05:52:06;;;;;;;7.55;1.80;;;;;;;;;;5026377;28;20042;-83
2023/12/11 05:54:37;;;;;;;5.82;1.67;;;;;;;;;;5016231;28;20062;-83
2023/12/11 05:57:03;;;;;;;6.53;1.52;;;10.90;99.90;;;;;;5002530;28;20089;-85
2023/12/11 05:59:29;;;;;;;6.13;1.58;;;;;;;;;;5024563;28;20048;-89
2023/12/11 06:01:55;;;;;;;5.97;1.38;;;10.90;99.90;;;;;;5004922;28;20017;-83
2023/12/11 06:04:20;;;;;;;5.40;1.40;;;10.90;99.90;;;;;;4987006;28;20041;-86
2023/12/11 06:06:47;;;;;;;7.53;1.50;;;;;;;;;;5019098;28;21524;-82
2023/12/11 06:09:16;;;;;;;5.30;1.30;;;10.90;99.90;;;;;;5004105;28;20079;-84
2023/12/11 06:11:41;;;;;;;8.98;1.67;;;10.90;99.90;;;;;;5022307;28;20113;-82
2023/12/11 06:14:07;;;;;;;6.60;1.40;;;;;;;;;;5015797;28;20033;-85
2023/12/11 06:16:33;;;;;;;6.25;1.40;;;11.00;99.90;;;;;;5002358;28;20036;-84
2023/12/11 06:18:59;;;;;;;6.05;1.38;;;;;;;;;;5020726;28;20060;-82
2023/12/11 06:21:25;;;;;;;6.55;1.48;;;11.00;99.90;;;;;;5020975;28;20089;-84
2023/12/11 06:23:51;;;;;;;8.90;1.70;;;;;;;;;;5002232;28;20044;-85
2023/12/11 06:26:34;;;;;;;7.85;1.55;;;11.00;99.90;;;;;;5023053;28;20366;-83
2023/12/11 06:29:00;;;;;;;10.32;1.98;;;11.00;99.90;;;;;;5002990;28;20040;-83
2023/12/11 06:31:27;;;;;;;10.85;2.10;;;11.10;99.90;;;;;;4999950;28;20173;-83
2023/12/11 06:33:54;;;;;;;6.40;1.40;;;;;;;;;;4998620;28;20029;-84
2023/12/11 06:36:21;;;;;;;5.88;1.80;;;11.00;99.90;;;;;;5020748;28;20041;-85
2023/12/11 06:38:50;;;;;;;6.10;1.50;;;11.00;99.90;;;;;;5004558;28;20044;-83
2023/12/11 06:41:17;;;;;;;8.52;1.40;;;;;;;;;;5003984;28;20025;-83
2023/12/11 06:43:45;;;;;;;8.02;1.50;;;11.00;99.90;;;;;;5005105;28;20041;-84
2023/12/11 06:46:11;;;;;;;10.75;1.90;;;11.00;99.90;;;;;;5001011;28;20129;-84
2023/12/11 06:48:37;;;;;;;6.32;1.55;;;11.00;99.90;;;;;;5006720;28;20030;-83
2023/12/11 06:51:03;;;;;;;8.82;1.50;;;11.50;99.90;;;;;;5003969;28;20042;-83
2023/12/11 06:53:28;;;;;;;8.27;1.48;;;11.10;99.90;;;;;;5017114;28;22033;-86
2023/12/11 06:55:54;;;;;;;8.00;1.60;;;;;;;;;;5023950;28;20030;-84
2023/12/11 06:58:20;;;;;;;8.25;1.77;;;;;;;;;;5019597;28;20033;-84
2023/12/11 07:00:46;;;;;;;5.65;1.88;;;11.10;99.90;;;;;;4999054;28;20037;-85
2023/12/11 07:03:12;;;;;;;10.07;2.45;;;;;;;;;;5022396;28;20034;-85
2023/12/11 07:05:41;;;;;;;7.05;1.67;;;11.10;99.90;;;;;;5024338;28;20069;-84
2023/12/11 07:08:07;;;;;;;8.88;1.90;;;11.10;99.90;;;;;;5006564;28;20023;-84
2023/12/11 07:10:33;;;;;;;7.78;1.63;;;11.10;99.90;;;;;;5022013;28;20034;-82
2023/12/11 07:12:59;;;;;;;7.88;1.67;;;;;;;;;;5021806;28;20005;-86
2023/12/11 07:15:24;;;;;;;9.73;2.10;;;11.10;99.90;;;;;;5007875;28;20089;-84
2023/12/11 07:17:50;;;;;;;7.97;2.67;;;11.00;99.90;;;;;;5021376;28;20030;-86
2023/12/11 07:20:16;;;;;;;9.32;2.13;;;11.10;99.90;;;;;;5005930;28;20026;-83
2023/12/11 07:22:42;;;;;;;10.23;1.70;;;;;;;;;;5022775;28;20021;-84
2023/12/11 07:25:08;;;;;;;7.85;1.42;;;;;;;;;;5008972;28;20239;-86
2023/12/11 07:27:34;;;;;;;5.55;1.63;;;11.10;99.90;;;;;;5007118;28;20041;-85
2023/12/11 07:30:00;;;;;;;10.35;1.88;;;;;;;;;;5020376;28;20121;-86
2023/12/11 07:32:26;;;;;;;6.85;1.60;;;11.00;99.90;;;;;;5025855;28;20041;-84
2023/12/11 07:34:52;;;;;;;7.65;1.50;;;;;;;;;;5017372;28;20629;-85
2023/12/11 07:37:18;;;;;;;5.60;1.67;;;;;;;;;;5018116;28;20013;-86
2023/12/11 07:39:45;;;;;;;7.05;1.50;;;11.00;99.90;;;;;;5002539;28;20057;-82
2023/12/11 07:42:10;;;;;;;11.88;1.98;;;10.90;99.90;;;;;;5025170;28;20093;-87
2023/12/11 07:44:36;;;;;;;12.52;2.13;;;;;;;;;;5024852;28;20042;-85
2023/12/11 07:47:02;;;;;;;6.57;1.80;;;;;;;;;;5021541;28;20021;-85
2023/12/11 07:49:28;;;;;;;6.88;1.63;;;;;;;;;;5023640;28;20042;-85
2023/12/11 07:51:54;;;;;;;5.72;1.60;;;;;;;;;;5016911;28;20022;-82
2023/12/11 07:54:20;;;;;;;5.55;1.58;;;11.00;99.90;;;;;;5002047;28;20030;-84
2023/12/11 07:56:47;;;;;;;8.20;1.90;;;;;;;;;;5018175;28;20037;-84
2023/12/11 07:59:13;;;;;;;12.20;1.80;;;;;;;;;;5018434;28;20109;-87
2023/12/11 08:01:39;;;;;;;9.85;2.05;;;11.00;99.90;;;;;;4996157;28;20101;-85
2023/12/11 08:04:04;;;;;;;9.07;1.90;;;11.00;99.90;;;;;;5004580;28;20022;-86
2023/12/11 08:06:30;;;;;;;9.02;2.40;;;11.00;99.90;;;;;;5009113;28;20464;-85
2023/12/11 08:08:56;;;;;;;12.93;2.20;;;11.00;99.90;;;;;;5030573;28;20014;-84
2023/12/11 08:11:27;;;;;;;12.90;2.10;;;11.00;99.90;;;;;;5021991;28;20089;-85
2023/12/11 08:13:53;;;;;;;11.50;2.58;;;9.40;99.90;;;;;;5011319;28;20018;-82
2023/12/11 08:16:19;;;;;;;14.25;2.25;;;11.00;99.90;;;;;;5012675;28;20030;-84
2023/12/11 08:18:45;;;;;;;10.30;2.03;;;11.00;99.90;;;;;;5030041;28;20647;-86
2023/12/11 08:21:11;;;;;;;12.70;2.05;;;11.00;99.90;;;;;;5022619;28;20018;-85
2023/12/11 08:23:43;;;;;;;16.40;6.90;;;11.30;99.90;;;;;;5012578;28;20108;-86
2023/12/11 08:26:10;;;;;;;16.27;2.80;;;11.00;99.90;;;;;;5007162;28;20028;-86
2023/12/11 08:28:36;;;;;;;11.23;1.95;;;10.90;99.90;;;;;;5023564;28;20044;-86
2023/12/11 08:31:03;;;;;;;11.45;2.42;;;11.00;99.90;;;;;;5005597;28;20034;-87
2023/12/11 08:33:29;;;;;;;8.27;2.50;;;10.70;99.90;;;;;;5012196;28;20030;-86
2023/12/11 08:35:55;;;;;;;9.77;1.95;;;11.20;99.90;;;;;;5001262;28;20022;-85
2023/12/11 08:38:22;;;;;;;11.32;2.22;;;11.10;99.90;;;;;;5005975;28;20033;-85
2023/12/11 08:40:49;;;;;;;13.43;2.13;;;11.20;99.90;;;;;;5025335;28;20036;-83
2023/12/11 08:43:14;;;;;;;13.32;4.07;;;11.30;99.90;;;;;;5006573;28;20033;-85
2023/12/11 08:45:40;;;;;;;10.15;2.17;;;11.30;99.90;;;;;;5014318;28;20038;-85
2023/12/11 08:48:06;;;;;;;12.57;2.58;;;11.30;99.90;;;;;;5011019;28;20030;-78
2023/12/11 08:50:32;;;;;;;15.85;2.60;;;11.30;99.90;;;;;;4997115;28;20022;-83
2023/12/11 08:52:59;;;;;;;10.27;2.10;;;11.40;99.90;;;;;;5008155;28;20514;-82
2023/12/11 08:55:24;;;;;;;12.88;2.13;;;11.50;99.90;;;;;;5008460;28;20034;-80
2023/12/11 08:57:50;;;;;;;9.63;2.45;;;11.30;99.90;;;;;;4990240;28;20620;-82
2023/12/11 09:00:16;;;;;;;16.08;2.92;;;11.40;99.90;;;;;;5007782;28;20041;-80
2023/12/11 09:02:41;;;;;;;13.38;2.35;;;11.20;99.90;;;;;;5014218;28;20117;-85
2023/12/11 09:05:08;;;;;;;11.27;2.85;;;11.30;99.90;;;;;;5011788;28;20050;-83
2023/12/11 09:07:34;;;;;;;12.52;2.22;;;11.40;99.90;;;;;;5013034;28;20144;-80
2023/12/11 09:10:00;;;;;;;13.95;2.75;;;11.30;99.90;;;;;;4995039;28;20065;-86
2023/12/11 09:12:26;;;;;;;11.52;2.22;;;11.30;99.90;;;;;;4990673;28;20030;-85
2023/12/11 09:14:52;;;;;;;13.55;2.33;;;11.30;99.90;;;;;;4975003;28;20022;-80
2023/12/11 09:17:18;;;;;;;12.32;2.10;;;11.40;99.90;;;;;;5004869;28;20082;-82
2023/12/11 09:19:44;;;;;;;16.27;2.75;;;11.50;99.90;;;;;;5010198;28;20045;-81
2023/12/11 09:22:10;;;;;;;13.95;2.88;;;11.50;99.90;;;;;;5008036;28;20022;-80
2023/12/11 09:24:36;;;;;;;17.83;2.38;;;11.50;99.90;;;;;;4995640;28;20049;-84
2023/12/11 09:27:03;;;;;;;11.52;2.17;;;11.40;99.90;;;;;;5006293;28;20385;-85
2023/12/11 09:29:28;;;;;;;12.20;2.22;;;11.40;99.90;;;;;;5013853;28;20026;-83
2023/12/11 09:31:54;;;;;;;11.60;2.42;;;11.50;99.90;;;;;;5013370;28;20022;-84
2023/12/11 09:34:20;;;;;;;10.48;1.85;;;11.40;99.90;;;;;;5009961;28;20033;-83
2023/12/11 09:36:45;;;;;;;17.70;3.05;;;11.50;99.90;;;;;;5011968;28;20029;-85
2023/12/11 09:39:11;;;;;;;10.60;2.55;;;11.50;99.90;;;;;;5008207;28;20025;-80
2023/12/11 09:41:37;;;;;;;14.27;2.75;;;11.70;99.90;;;;;;5012939;28;20030;-81
2023/12/11 09:44:03;;;;;;;14.02;2.60;;;11.80;99.90;;;;;;5011920;28;20060;-83
2023/12/11 09:46:45;;;;;;;11.35;2.28;;;11.70;99.90;;;;;;5008957;28;20029;-82
2023/12/11 09:49:11;;;;;;;11.85;2.28;;;11.80;99.90;;;;;;5009202;28;20095;-78
2023/12/11 09:51:36;;;;;;;11.25;2.30;;;11.80;99.90;;;;;;5015673;28;20022;-85
2023/12/11 09:54:04;;;;;;;11.38;2.72;;;11.90;99.90;;;;;;4995460;28;20033;-83
2023/12/11 09:56:31;;;;;;;12.60;2.58;;;11.90;99.90;;;;;;5010341;28;20025;-84
2023/12/11 09:58:57;;;;;;;13.85;3.13;;;11.90;99.90;;;;;;5008974;28;20033;-84
2023/12/11 10:01:23;;;;;;;18.83;2.45;;;11.90;99.90;;;;;;4989707;28;20594;-81
2023/12/11 10:03:49;;;;;;;10.55;2.10;;;12.00;99.90;;;;;;4989403;28;20034;-84
2023/12/11 10:06:14;;;;;;;16.73;3.20;;;12.00;99.90;;;;;;5011736;28;20034;-84
2023/12/11 10:08:45;;;;;;;15.10;2.22;;;12.10;99.90;;;;;;5018911;28;20076;-83
2023/12/11 10:11:13;;;;;;;10.75;2.03;;;12.20;99.90;;;;;;5015900;28;20030;-83
2023/12/11 10:13:41;;;;;;;13.60;2.65;;;12.00;99.90;;;;;;5010031;28;20041;-88
2023/12/11 10:16:37;;;;;;;12.70;2.50;;;12.10;99.90;;;;;;5027233;28;20050;-87
2023/12/11 10:19:13;;;;;;;11.15;2.42;;;12.10;99.90;;;;;;5000534;28;20034;-86
2023/12/11 10:21:40;;;;;;;15.80;3.42;;;12.20;99.90;;;;;;5011481;28;20057;-85
2023/12/11 10:24:10;;;;;;;14.40;3.15;;;12.10;99.90;;;;;;5011805;28;20048;-84
2023/12/11 10:26:56;;;;;;;14.60;2.75;;;12.20;99.90;;;;;;5021324;28;20779;-83
2023/12/11 10:29:23;;;;;;;13.73;2.25;;;12.30;99.90;;;;;;5023152;28;20036;-86
2023/12/11 10:32:04;;;;;;;16.58;3.47;;;12.20;99.90;;;;;;5026320;28;20022;-84
2023/12/11 10:34:45;;;;;;;17.13;3.45;;;12.30;99.90;;;;;;5000032;28;20657;-87
2023/12/11 10:37:29;;;;;;;19.08;3.08;;;12.30;99.90;;;;;;4997809;28;20096;-89
2023/12/11 10:40:02;;;;;;;15.40;3.35;;;12.30;99.90;;;;;;5000772;28;20037;-85
2023/12/11 10:42:28;;;;;;;19.15;2.90;;;12.40;99.90;;;;;;5004383;28;20045;-87
2023/12/11 10:44:58;;;;;;;15.00;2.75;;;12.40;99.90;;;;;;5021258;28;20029;-85
2023/12/11 10:47:24;;;;;;;12.18;2.28;;;12.40;99.90;;;;;;5003839;28;20050;-85
2023/12/11 10:49:49;;;;;;;12.23;2.72;;;12.40;99.90;;;;;;5020540;28;20029;-85
2023/12/11 10:52:39;;;;;;;13.25;2.95;;;11.70;99.90;;;;;;5017839;28;20133;-85
2023/12/11 10:55:26;;;;;;;20.98;3.63;;;14.10;99.90;;;;;;5017921;28;20034;-87
2023/12/11 10:57:56;;;;;;;13.90;2.72;;;14.10;99.90;;;;;;5005511;28;20042;-86
2023/12/11 11:00:21;;;;;;;18.30;2.67;;;11.90;99.90;;;;;;5021960;28;20026;-86
2023/12/11 11:03:02;;;;;;;17.45;2.70;;;12.40;99.90;;;;;;5001447;28;20354;-85
2023/12/11 11:05:30;;;;;;;14.55;2.40;;;12.40;99.90;;;;;;5019599;28;20018;-85
2023/12/11 11:08:36;;;;;;;16.92;2.92;;;13.30;99.90;;;;;;5022446;28;20030;-87
2023/12/11 11:11:11;;;;;;;14.23;3.20;;;12.60;99.90;;;;;;5022201;28;20030;-86
2023/12/11 11:17:05;;;;;;;16.73;3.75;;;12.20;99.90;;;;;;5019421;28;20057;-86
2023/12/11 11:19:31;;;;;;;13.60;2.60;;;12.80;99.90;;;;;;5008034;28;20030;-87
2023/12/11 11:22:03;;;;;;;15.77;3.00;;;12.60;99.90;;;;;;5027166;28;20041;-82
2023/12/11 11:28:02;;;;;;;12.80;2.80;;;12.80;99.90;;;;;;5025085;28;20045;-85
2023/12/11 11:37:59;;;;;;;20.33;7.60;;;12.70;99.90;;;;;;4889602;29;20035;-84
2023/12/11 11:40:38;;;;;;;13.80;2.85;;;14.20;99.90;;;;;;4942867;28;20035;-85
2023/12/11 11:43:42;;;;;;;18.38;2.67;;;12.70;99.90;;;;;;4931377;29;20046;-87
2023/12/11 11:46:01;;;;;;;12.15;2.80;;;12.10;99.90;;;;;;5012156;28;20022;-86
2023/12/11 11:48:41;;;;;;;16.27;2.90;;;13.70;99.90;;;;;;5015843;28;20030;-87
2023/12/11 11:51:07;;;;;;;18.45;2.83;;;14.70;99.90;;;;;;5009037;28;20045;-85
2023/12/11 11:53:33;;;;;;;15.30;2.28;;;13.50;99.90;;;;;;5022360;28;20018;-86
2023/12/11 11:56:01;;;;;;;11.90;2.78;;;14.20;99.90;;;;;;5023080;28;20111;-86
2023/12/11 11:58:26;;;;;;;29.27;9.05;;;14.20;99.90;;;;;;5027700;28;20036;-84
2023/12/11 12:01:05;;;;;;;15.88;2.72;;;13.00;99.90;;;;;;5027182;28;20034;-85
2023/12/11 12:03:44;;;;;;;13.15;3.08;;;12.90;99.90;;;;;;5024794;28;20025;-86
2023/12/11 12:06:10;;;;;;;13.35;3.28;;;14.20;99.90;;;;;;5007029;28;20082;-85
2023/12/11 12:08:41;;;;;;;14.68;2.65;;;13.80;99.90;;;;;;5021014;28;20022;-86
2023/12/11 12:11:07;;;;;;;9.75;2.28;;;13.00;99.90;;;;;;5020786;28;20029;-85
2023/12/11 12:13:33;;;;;;;18.15;3.10;;;13.20;99.90;;;;;;5005176;28;20027;-86
2023/12/11 12:15:59;;;;;;;12.98;2.83;;;13.10;99.90;;;;;;5017827;28;20072;-84
2023/12/11 12:18:24;;;;;;;15.40;2.58;;;13.10;99.90;;;;;;5021624;28;20022;-85
2023/12/11 12:21:03;;;;;;;15.00;2.97;;;13.10;99.90;;;;;;5008428;28;20052;-86
2023/12/11 12:23:29;;;;;;;17.67;3.50;;;13.00;99.90;;;;;;5001310;28;20033;-84
2023/12/11 12:25:59;;;;;;;13.48;2.55;;;14.20;99.90;;;;;;5006420;28;20034;-87
2023/12/11 12:28:25;;;;;;;18.52;2.70;;;13.00;99.90;;;;;;5021310;28;20038;-86
2023/12/11 12:30:51;;;;;;;14.75;2.58;;;13.00;99.90;;;;;;5006874;28;20026;-87
2023/12/11 12:33:18;;;;;;;14.95;3.33;;;12.90;99.90;;;;;;5002218;28;20550;-86
2023/12/11 12:35:45;;;;;;;23.80;3.38;;;12.80;99.90;;;;;;5022885;28;20026;-85
2023/12/11 12:38:11;;;;;;;19.60;3.83;;;12.80;99.90;;;;;;5027092;28;20019;-86
2023/12/11 12:40:37;;;;;;;12.55;2.95;;;12.90;99.90;;;;;;5009136;28;20023;-87
2023/12/11 12:43:13;;;;;;;13.52;2.78;;;12.90;99.90;;;;;;5009837;28;20056;-89
2023/12/11 12:45:39;;;;;;;13.75;2.85;;;12.90;99.90;;;;;;5006307;28;20094;-86
2023/12/11 12:48:06;;;;;;;14.00;2.83;;;13.00;99.90;;;;;;5023741;28;20046;-87
2023/12/11 12:50:32;;;;;;;14.90;2.83;;;14.10;99.90;;;;;;5025494;28;20539;-85
2023/12/11 12:53:12;;;;;;;14.57;2.72;;;13.70;99.90;;;;;;5007720;28;20018;-85
2023/12/11 12:55:39;;;;;;;11.50;2.40;;;13.60;99.90;;;;;;5021714;28;20026;-85
2023/12/11 12:58:05;;;;;;;11.90;2.65;;;13.50;99.90;;;;;;5009086;28;20035;-86
2023/12/11 13:00:38;;;;;;;15.43;2.85;;;13.30;99.90;;;;;;5018087;28;20033;-85
2023/12/11 13:03:07;;;;;;;13.45;2.42;;;12.80;99.90;;;;;;5007332;28;20066;-84
2023/12/11 13:05:40;;;;;;;16.55;3.17;;;13.50;99.90;;;;;;5027655;28;20026;-84
2023/12/11 13:08:06;;;;;;;15.68;3.03;;;13.40;99.90;;;;;;5024424;28;20034;-83
2023/12/11 13:10:31;;;;;;;18.15;3.38;;;13.00;99.90;;;;;;5024370;28;20025;-85
2023/12/11 13:12:57;;;;;;;18.30;2.97;;;13.60;99.90;;;;;;5006939;28;20045;-86
2023/12/11 13:15:23;;;;;;;15.68;2.85;;;13.20;99.90;;;;;;5004943;28;20046;-87
2023/12/11 13:17:52;;;;;;;18.35;3.55;;;13.10;99.90;;;;;;5002615;28;20041;-86
2023/12/11 13:20:19;;;;;;;17.88;2.90;;;13.00;99.90;;;;;;5020429;28;20022;-85
2023/12/11 13:22:45;;;;;;;10.65;2.45;;;13.20;99.90;;;;;;5006932;28;20026;-83